createdAt,value
2023-03-31T00:00:54.742Z,100243.97
2023-03-31T00:03:25.358Z,100233.81
2023-03-31T00:05:59.433Z,100233.47
2023-03-31T00:08:30.740Z,100233.63
2023-03-31T00:11:00.985Z,100240.19
2023-03-31T00:13:28.715Z,100237.34
2023-03-31T00:16:04.591Z,100237.41
2023-03-31T00:18:36.215Z,100223.09
2023-03-31T00:21:14.952Z,100226.91
2023-03-31T00:23:42.226Z,100220.81
2023-03-31T00:26:09.393Z,100220.81
2023-03-31T00:28:39.109Z,100220.88
2023-03-31T00:31:06.104Z,100218.91
2023-03-31T00:33:33.164Z,100219.72
2023-03-31T00:36:06.646Z,100214.09
2023-03-31T00:38:33.899Z,100212.75
2023-03-31T00:41:01.448Z,100211.31
2023-03-31T00:43:31.688Z,100208.38
2023-03-31T00:46:14.113Z,100210.16
2023-03-31T00:48:51.715Z,100203.94
2023-03-31T00:51:20.256Z,100205.91
2023-03-31T00:53:55.669Z,100206.88
2023-03-31T00:56:22.595Z,100200.16
2023-03-31T00:58:50.241Z,100196.34
2023-03-31T01:01:20.891Z,100189.97
2023-03-31T01:03:48.370Z,100188.50
2023-03-31T01:06:20.173Z,100185.94
2023-03-31T01:08:49.232Z,100184.19
2023-03-31T01:11:20.164Z,100179.63
2023-03-31T01:13:51.182Z,100177.81
2023-03-31T01:16:19.099Z,100180.59
2023-03-31T01:18:49.938Z,100165.13
2023-03-31T01:21:40.333Z,100164.16
2023-03-31T01:24:47.529Z,100168.03
2023-03-31T01:27:37.524Z,100159.94
2023-03-31T01:30:07.560Z,100155.00
2023-03-31T01:33:21.955Z,100155.66
2023-03-31T01:36:13.713Z,100159.94
2023-03-31T01:39:19.151Z,100156.19
2023-03-31T01:42:21.952Z,100082.09
2023-03-31T01:44:51.451Z,100135.88
2023-03-31T01:47:31.833Z,100103.09
2023-03-31T01:50:07.295Z,100131.91
2023-03-31T01:53:23.737Z,100123.81
2023-03-31T01:56:04.804Z,100125.16
2023-03-31T01:58:42.539Z,100103.09
2023-03-31T02:01:37.486Z,100123.75
2023-03-31T02:04:22.772Z,100109.63
2023-03-31T02:07:01.740Z,100112.72
2023-03-31T02:09:35.599Z,100107.16
2023-03-31T02:12:06.557Z,100105.81
2023-03-31T02:14:35.722Z,100099.22
2023-03-31T02:17:04.076Z,100093.31
2023-03-31T02:19:37.012Z,100091.22
2023-03-31T02:22:07.515Z,100088.28
2023-03-31T02:24:37.324Z,100081.75
2023-03-31T02:27:10.495Z,100076.19
2023-03-31T02:29:37.510Z,100073.34
2023-03-31T02:32:14.488Z,100075.44
2023-03-31T02:34:41.753Z,100071.25
2023-03-31T02:37:09.129Z,100072.69
2023-03-31T02:39:39.767Z,100072.00
2023-03-31T02:42:09.943Z,100065.06
2023-03-31T02:44:38.562Z,100061.75
2023-03-31T02:47:09.737Z,100060.03
2023-03-31T02:49:40.601Z,100044.19
2023-03-31T02:52:18.360Z,100050.00
2023-03-31T02:54:58.519Z,100039.47
2023-03-31T02:58:04.344Z,100043.59
2023-03-31T03:01:28.294Z,100047.28
2023-03-31T03:04:34.438Z,100042.91
2023-03-31T03:07:39.999Z,100036.13
2023-03-31T03:10:36.389Z,100040.34
2023-03-31T03:13:24.392Z,100037.41
2023-03-31T03:16:04.530Z,100031.72
2023-03-31T03:18:32.084Z,100024.53
2023-03-31T03:20:59.007Z,100015.38
2023-03-31T03:23:26.125Z,100016.84
2023-03-31T03:25:52.985Z,99995.81
2023-03-31T03:28:20.230Z,100002.13
2023-03-31T03:30:47.500Z,100007.13
2023-03-31T03:33:17.477Z,100008.28
2023-03-31T03:35:44.636Z,100008.41
2023-03-31T03:38:11.676Z,99953.53
2023-03-31T03:40:38.710Z,100004.63
2023-03-31T03:43:05.803Z,100006.94
2023-03-31T03:45:32.830Z,100001.66
2023-03-31T03:47:59.796Z,99999.47
2023-03-31T03:50:26.945Z,100000.38
2023-03-31T03:52:54.506Z,100000.78
2023-03-31T03:55:21.376Z,99995.34
2023-03-31T03:57:50.351Z,99958.28
2023-03-31T04:00:17.298Z,99993.03
2023-03-31T04:02:44.165Z,99987.94
2023-03-31T04:05:11.229Z,99980.00
2023-03-31T04:07:38.195Z,99979.91
2023-03-31T04:10:06.913Z,99981.16
2023-03-31T04:12:37.176Z,99977.22
2023-03-31T04:15:04.659Z,99978.38
2023-03-31T04:17:35.259Z,99967.94
2023-03-31T04:20:05.866Z,99962.34
2023-03-31T04:22:35.680Z,99967.31
2023-03-31T04:25:04.726Z,99967.47
2023-03-31T04:27:34.053Z,99960.50
2023-03-31T04:30:01.015Z,99957.63
2023-03-31T04:32:28.648Z,99951.91
2023-03-31T04:35:03.561Z,99946.50
2023-03-31T04:37:35.039Z,99939.38
2023-03-31T04:40:08.065Z,99937.19
2023-03-31T04:42:35.279Z,99926.34
2023-03-31T04:45:03.158Z,99926.78
2023-03-31T04:47:30.093Z,99916.47
2023-03-31T04:49:56.992Z,99920.50
2023-03-31T04:52:24.084Z,99913.75
2023-03-31T04:54:51.292Z,99911.69
2023-03-31T04:57:18.371Z,99894.34
2023-03-31T04:59:45.338Z,99898.34
2023-03-31T05:02:12.346Z,99894.19
2023-03-31T05:04:39.186Z,99895.97
2023-03-31T05:07:06.185Z,99881.63
2023-03-31T05:09:34.644Z,99878.16
2023-03-31T05:12:01.951Z,99879.75
2023-03-31T05:14:28.846Z,99869.72
2023-03-31T05:16:58.259Z,99875.78
2023-03-31T05:19:25.726Z,99865.38
2023-03-31T05:21:52.811Z,99865.03
2023-03-31T05:24:19.724Z,99861.53
2023-03-31T05:26:51.731Z,99855.31
2023-03-31T05:29:19.745Z,99860.19
2023-03-31T05:31:47.550Z,99850.31
2023-03-31T05:34:15.193Z,99851.72
2023-03-31T05:36:44.101Z,99850.31
2023-03-31T05:39:11.024Z,99843.03
2023-03-31T05:41:37.887Z,99839.69
2023-03-31T05:44:04.828Z,99836.00
2023-03-31T05:46:32.172Z,99839.69
2023-03-31T05:49:00.018Z,99840.50
2023-03-31T05:51:27.012Z,99837.63
2023-03-31T05:53:54.138Z,99838.31
2023-03-31T05:56:22.430Z,99813.94
2023-03-31T05:58:49.258Z,99820.66
2023-03-31T06:01:23.151Z,99820.34
2023-03-31T06:03:50.531Z,99805.03
2023-03-31T06:06:17.447Z,99810.16
2023-03-31T06:08:46.194Z,99815.34
2023-03-31T06:11:19.689Z,99821.41
2023-03-31T06:13:47.544Z,99824.19
2023-03-31T06:16:17.255Z,99821.41
2023-03-31T06:18:44.788Z,99817.56
2023-03-31T06:21:14.572Z,99816.19
2023-03-31T06:23:41.942Z,99813.41
2023-03-31T06:26:09.651Z,99807.84
2023-03-31T06:28:36.700Z,99802.84
2023-03-31T06:31:09.849Z,99813.66
2023-03-31T06:33:36.917Z,99812.81
2023-03-31T06:36:05.951Z,99801.69
2023-03-31T06:38:35.620Z,99803.31
2023-03-31T06:41:03.045Z,99806.81
2023-03-31T06:43:30.219Z,99801.44
2023-03-31T06:45:57.332Z,99794.06
2023-03-31T06:48:25.549Z,99798.69
2023-03-31T06:50:54.447Z,99802.16
2023-03-31T06:53:22.424Z,99797.44
2023-03-31T06:55:49.427Z,99795.31
2023-03-31T06:58:16.523Z,99789.31
2023-03-31T07:00:45.499Z,99791.91
2023-03-31T07:03:13.664Z,99760.78
2023-03-31T07:05:41.376Z,99783.88
2023-03-31T07:08:08.223Z,99788.53
2023-03-31T07:10:35.042Z,99789.22
2023-03-31T07:13:04.415Z,99782.19
2023-03-31T07:15:32.312Z,99782.41
2023-03-31T07:18:02.291Z,99782.25
2023-03-31T07:20:30.786Z,99781.53
2023-03-31T07:22:58.029Z,99778.94
2023-03-31T07:25:25.182Z,99773.53
2023-03-31T07:27:52.200Z,99777.56
2023-03-31T07:30:20.332Z,99766.06
2023-03-31T07:32:49.061Z,99767.78
2023-03-31T07:35:17.172Z,99765.28
2023-03-31T07:37:46.962Z,99757.84
2023-03-31T07:40:17.092Z,99759.63
2023-03-31T07:42:46.477Z,99704.75
2023-03-31T07:45:16.844Z,99740.63
2023-03-31T07:47:45.017Z,99749.28
2023-03-31T07:50:12.370Z,99722.75
2023-03-31T07:52:40.559Z,99745.50
2023-03-31T07:55:09.509Z,99747.25
2023-03-31T07:57:37.126Z,99751.00
2023-03-31T08:00:10.990Z,99749.25
2023-03-31T08:02:38.813Z,99750.50
2023-03-31T08:05:07.419Z,99737.69
2023-03-31T08:07:39.418Z,99737.78
2023-03-31T08:10:09.056Z,99730.44
2023-03-31T08:12:36.132Z,99730.09
2023-03-31T08:15:03.627Z,99734.13
2023-03-31T08:17:30.830Z,99723.16
2023-03-31T08:19:59.741Z,99708.28
2023-03-31T08:22:28.605Z,99727.91
2023-03-31T08:24:55.881Z,99717.94
2023-03-31T08:27:22.638Z,99724.03
2023-03-31T08:29:50.227Z,99714.22
2023-03-31T08:32:17.216Z,99717.25
2023-03-31T08:34:44.064Z,99714.50
2023-03-31T08:37:12.845Z,99717.88
2023-03-31T08:39:39.990Z,99704.84
2023-03-31T08:42:20.370Z,99713.03
2023-03-31T08:45:26.724Z,99701.16
2023-03-31T08:48:04.062Z,99704.88
2023-03-31T08:50:36.815Z,99694.16
2023-03-31T08:53:14.045Z,99698.34
2023-03-31T08:55:54.728Z,99688.38
2023-03-31T08:58:42.381Z,99694.09
2023-03-31T09:01:32.408Z,99691.72
2023-03-31T09:04:24.214Z,99682.09
2023-03-31T09:07:11.062Z,99682.25
2023-03-31T09:10:19.980Z,99673.88
2023-03-31T09:13:23.066Z,99665.75
2023-03-31T09:16:01.574Z,99669.47
2023-03-31T09:18:33.049Z,99659.78
2023-03-31T09:21:10.854Z,99666.88
2023-03-31T09:23:51.580Z,99659.72
2023-03-31T09:26:27.616Z,99648.97
2023-03-31T09:28:58.057Z,99647.19
2023-03-31T09:31:25.134Z,99642.56
2023-03-31T09:33:59.695Z,99636.31
2023-03-31T09:36:26.475Z,99639.09
2023-03-31T09:38:53.490Z,99629.91
2023-03-31T09:41:20.943Z,99624.97
2023-03-31T09:43:52.488Z,99620.81
2023-03-31T09:46:29.222Z,99624.59
2023-03-31T09:49:02.805Z,99626.41
2023-03-31T09:51:33.635Z,99620.09
2023-03-31T09:54:14.864Z,99619.06
2023-03-31T09:56:49.237Z,99610.88
2023-03-31T09:59:21.114Z,99603.38
2023-03-31T10:01:52.066Z,99609.25
2023-03-31T10:04:25.721Z,99598.22
2023-03-31T10:06:53.954Z,99601.81
2023-03-31T10:09:25.268Z,99604.50
2023-03-31T10:11:58.427Z,99597.38
2023-03-31T10:14:32.920Z,99597.34
2023-03-31T10:17:06.063Z,99595.56
2023-03-31T10:19:36.732Z,99593.81
2023-03-31T10:22:16.296Z,99589.19
2023-03-31T10:24:45.720Z,99588.38
2023-03-31T10:27:26.727Z,99584.69
2023-03-31T10:30:02.426Z,99580.72
2023-03-31T10:32:32.384Z,99575.72
2023-03-31T10:35:09.283Z,99578.44
2023-03-31T10:37:37.983Z,99573.78
2023-03-31T10:40:21.334Z,99560.38
2023-03-31T10:42:58.883Z,99552.50
2023-03-31T10:45:37.016Z,99565.06
2023-03-31T10:48:07.266Z,99573.16
2023-03-31T10:50:36.627Z,99564.69
2023-03-31T10:53:22.329Z,99528.25
2023-03-31T10:56:08.190Z,99558.44
2023-03-31T10:59:05.711Z,99552.25
2023-03-31T11:02:31.373Z,99545.53
2023-03-31T11:05:16.086Z,99543.41
2023-03-31T11:08:32.284Z,99547.25
2023-03-31T11:11:32.303Z,99535.94
2023-03-31T11:14:24.604Z,99530.81
2023-03-31T11:17:11.799Z,99541.16
2023-03-31T11:20:07.118Z,99529.38
2023-03-31T11:22:44.774Z,99522.09
2023-03-31T11:25:32.075Z,99532.09
2023-03-31T11:28:04.643Z,99532.25
2023-03-31T11:30:39.957Z,99526.63
2023-03-31T11:33:44.400Z,99520.66
2023-03-31T11:36:46.732Z,99525.06
2023-03-31T11:39:51.353Z,99521.69
2023-03-31T11:42:27.723Z,99509.75
2023-03-31T11:45:04.658Z,99492.84
2023-03-31T11:47:38.047Z,99509.78
2023-03-31T11:50:11.700Z,99503.25
2023-03-31T11:52:43.679Z,99507.00
2023-03-31T11:55:19.560Z,99499.22
2023-03-31T11:58:13.221Z,99500.41
2023-03-31T12:01:22.252Z,99499.38
2023-03-31T12:03:58.135Z,99505.88
2023-03-31T12:06:30.883Z,99499.25
2023-03-31T12:09:21.812Z,99493.75
2023-03-31T12:11:59.999Z,99492.38
2023-03-31T12:14:42.378Z,99492.31
2023-03-31T12:17:23.278Z,99483.59
2023-03-31T12:19:53.841Z,99491.47
2023-03-31T12:22:39.316Z,99484.31
2023-03-31T12:25:06.750Z,99485.13
2023-03-31T12:27:41.966Z,99478.47
2023-03-31T12:30:37.917Z,99478.75
2023-03-31T12:33:27.361Z,99469.28
2023-03-31T12:36:13.597Z,99475.38
2023-03-31T12:39:09.193Z,99474.91
2023-03-31T12:42:03.222Z,99466.91
2023-03-31T12:44:40.441Z,99471.69
2023-03-31T12:47:13.377Z,99462.78
2023-03-31T12:49:58.798Z,99453.91
2023-03-31T12:52:46.909Z,99438.63
2023-03-31T12:55:37.460Z,99442.41
2023-03-31T12:58:22.970Z,99442.53
2023-03-31T13:01:11.294Z,99441.69
2023-03-31T13:04:04.947Z,99442.25
2023-03-31T13:06:31.896Z,99435.56
2023-03-31T13:09:02.871Z,99442.69
2023-03-31T13:11:38.499Z,99438.03
2023-03-31T13:14:14.111Z,99423.78
2023-03-31T13:16:41.257Z,99429.16
2023-03-31T13:19:10.658Z,99419.31
2023-03-31T13:21:55.710Z,99399.69
2023-03-31T13:24:24.531Z,99417.63
2023-03-31T13:26:54.885Z,99412.50
2023-03-31T13:29:42.204Z,99411.09
2023-03-31T13:32:26.308Z,99395.38
2023-03-31T13:34:59.489Z,99405.81
2023-03-31T13:38:03.448Z,99404.47
2023-03-31T13:40:45.310Z,99399.34
2023-03-31T13:43:23.934Z,99404.00
2023-03-31T13:46:28.605Z,99390.13
2023-03-31T13:49:04.580Z,99391.53
2023-03-31T13:52:05.726Z,99392.16
2023-03-31T13:55:06.899Z,99395.34
2023-03-31T13:57:58.434Z,99391.56
2023-03-31T14:00:29.016Z,99393.47
2023-03-31T14:03:20.068Z,99390.22
2023-03-31T14:06:21.160Z,99388.69
2023-03-31T14:08:51.602Z,99381.69
2023-03-31T14:11:21.797Z,99393.53
2023-03-31T14:14:02.051Z,99394.34
2023-03-31T14:16:31.880Z,99394.72
2023-03-31T14:19:09.069Z,99398.41
2023-03-31T14:21:58.979Z,99399.09
2023-03-31T14:24:49.036Z,99394.94
2023-03-31T14:27:40.937Z,99366.56
2023-03-31T14:30:30.132Z,99378.50
2023-03-31T14:33:04.200Z,99375.66
2023-03-31T14:35:39.004Z,99386.97
2023-03-31T14:38:19.404Z,99373.22
2023-03-31T14:40:49.922Z,99368.09
2023-03-31T14:43:29.901Z,99367.19
2023-03-31T14:46:01.995Z,99363.34
2023-03-31T14:48:32.158Z,99366.75
2023-03-31T14:51:02.359Z,99365.81
2023-03-31T14:53:29.579Z,99363.03
2023-03-31T14:56:07.214Z,99374.00
2023-03-31T14:58:38.674Z,99382.78
2023-03-31T15:01:07.611Z,99383.47
2023-03-31T15:03:42.049Z,99386.91
2023-03-31T15:06:09.868Z,99386.84
2023-03-31T15:08:38.350Z,99381.31
2023-03-31T15:13:46.927Z,99374.06
2023-03-31T15:16:46.330Z,99380.09
2023-03-31T15:19:25.148Z,99380.81
2023-03-31T15:22:19.696Z,99380.88
2023-03-31T15:24:49.270Z,99380.50
2023-03-31T15:27:43.520Z,99387.94
2023-03-31T15:30:21.150Z,99387.13
2023-03-31T15:32:48.512Z,99383.28
2023-03-31T15:35:27.915Z,99379.63
2023-03-31T15:37:57.271Z,99384.59
2023-03-31T15:40:32.939Z,99388.03
2023-03-31T15:43:24.563Z,99379.09
2023-03-31T15:46:00.804Z,99384.75
2023-03-31T15:48:37.460Z,99383.28
2023-03-31T15:51:17.585Z,99384.41
2023-03-31T15:53:54.024Z,99382.84
2023-03-31T15:56:44.007Z,99383.69
2023-03-31T15:59:54.702Z,99382.28
2023-03-31T16:02:26.716Z,99381.44
2023-03-31T16:04:59.683Z,99374.38
2023-03-31T16:07:30.449Z,99382.19
2023-03-31T16:10:20.813Z,99377.84
2023-03-31T16:13:00.954Z,99383.59
2023-03-31T16:15:42.190Z,99378.88
2023-03-31T16:18:26.738Z,99383.25
2023-03-31T16:20:56.198Z,99382.31
2023-03-31T16:23:26.814Z,99376.19
2023-03-31T16:25:54.478Z,99390.28
2023-03-31T16:28:25.024Z,99382.75
2023-03-31T16:30:52.471Z,99388.75
2023-03-31T16:33:24.696Z,99390.47
2023-03-31T16:35:56.130Z,99398.28
2023-03-31T16:38:25.309Z,99393.25
2023-03-31T16:40:57.791Z,99390.81
2023-03-31T16:43:28.934Z,99388.78
2023-03-31T16:45:58.471Z,99388.63
2023-03-31T16:48:27.556Z,99393.44
2023-03-31T16:50:59.269Z,99390.81
2023-03-31T16:53:34.048Z,99404.25
2023-03-31T16:56:01.381Z,99393.53
2023-03-31T16:58:29.413Z,99400.56
2023-03-31T17:00:57.774Z,99403.31
2023-03-31T17:03:25.350Z,99401.22
2023-03-31T17:05:59.259Z,99401.09
2023-03-31T17:08:32.113Z,99401.09
2023-03-31T17:11:05.559Z,99400.41
2023-03-31T17:13:32.912Z,99397.78
2023-03-31T17:18:47.577Z,99385.19
2023-03-31T17:21:18.516Z,99402.25
2023-03-31T17:23:46.686Z,99401.97
2023-03-31T17:26:16.751Z,99379.06
2023-03-31T17:28:44.005Z,99404.41
2023-03-31T17:31:19.954Z,99400.50
2023-03-31T17:33:47.709Z,99399.72
2023-03-31T17:36:15.950Z,99403.97
2023-03-31T17:38:42.954Z,99409.75
2023-03-31T17:41:13.114Z,99414.84
2023-03-31T17:43:43.979Z,99415.19
2023-03-31T17:46:12.945Z,99417.81
2023-03-31T17:48:40.477Z,99399.03
2023-03-31T17:51:09.403Z,99401.72
2023-03-31T17:53:36.976Z,99417.66
2023-03-31T17:56:04.956Z,99418.72
2023-03-31T17:58:33.317Z,99426.44
2023-03-31T18:01:00.664Z,99427.09
2023-03-31T18:03:30.384Z,99424.75
2023-03-31T18:05:57.206Z,99431.88
2023-03-31T18:08:24.095Z,99433.78
2023-03-31T18:10:50.985Z,99436.47
2023-03-31T18:13:17.814Z,99421.75
2023-03-31T18:15:52.705Z,99430.09
2023-03-31T18:18:21.622Z,99435.66
2023-03-31T18:20:48.410Z,99444.66
2023-03-31T18:23:15.201Z,99444.22
2023-03-31T18:25:46.467Z,99438.19
2023-03-31T18:28:15.650Z,99447.28
2023-03-31T18:30:44.188Z,99435.59
2023-03-31T18:33:12.993Z,99437.84
2023-03-31T18:35:40.441Z,99445.31
2023-03-31T18:38:07.958Z,99443.06
2023-03-31T18:40:34.999Z,99442.41
2023-03-31T18:43:02.837Z,99445.81
2023-03-31T18:45:30.999Z,99429.31
2023-03-31T18:47:58.742Z,99451.78
2023-03-31T18:50:26.173Z,99447.38
2023-03-31T18:52:54.860Z,99448.28
2023-03-31T18:55:22.702Z,99447.66
2023-03-31T18:57:49.937Z,99454.13
2023-03-31T19:00:17.557Z,99426.91
2023-03-31T19:02:44.842Z,99448.91
2023-03-31T19:05:12.676Z,99445.09
2023-03-31T19:07:40.851Z,99450.97
2023-03-31T19:10:08.416Z,99448.19
2023-03-31T19:12:35.641Z,99448.88
2023-03-31T19:15:02.587Z,99450.19
2023-03-31T19:17:30.169Z,99454.13
2023-03-31T19:19:57.412Z,99455.50
2023-03-31T19:22:25.846Z,99457.16
2023-03-31T19:24:53.489Z,99460.63
2023-03-31T19:27:20.385Z,99456.66
2023-03-31T19:29:47.245Z,99457.63
2023-03-31T19:32:14.539Z,99406.41
2023-03-31T19:34:42.680Z,99453.59
2023-03-31T19:37:10.340Z,99460.09
2023-03-31T19:39:37.721Z,99469.13
2023-03-31T19:42:04.669Z,99467.13
2023-03-31T19:44:31.651Z,99466.03
2023-03-31T19:46:58.911Z,99457.94
2023-03-31T19:49:26.019Z,99470.31
2023-03-31T19:51:53.553Z,99468.91
2023-03-31T19:54:20.687Z,99468.03
2023-03-31T19:56:48.494Z,99462.34
2023-03-31T19:59:15.418Z,99476.25
2023-03-31T20:01:42.624Z,99464.09
2023-03-31T20:04:09.718Z,99461.09
2023-03-31T20:06:37.367Z,99471.03
2023-03-31T20:09:06.595Z,99466.34
2023-03-31T20:11:34.050Z,99468.75
2023-03-31T20:14:02.033Z,99466.88
2023-03-31T20:16:30.953Z,99458.84
2023-03-31T20:19:04.646Z,99463.72
2023-03-31T20:21:33.823Z,99462.25
2023-03-31T20:24:00.853Z,99473.63
2023-03-31T20:26:30.267Z,99466.00
2023-03-31T20:28:59.155Z,99464.25
2023-03-31T20:31:29.069Z,99462.19
2023-03-31T20:33:56.626Z,99460.22
2023-03-31T20:36:27.533Z,99469.22
2023-03-31T20:38:54.398Z,99465.41
2023-03-31T20:41:24.001Z,99467.59
2023-03-31T20:43:51.205Z,99463.91
2023-03-31T20:46:19.185Z,99464.00
2023-03-31T20:48:52.282Z,99468.75
2023-03-31T20:51:22.366Z,99467.59
2023-03-31T20:53:53.309Z,99466.31
2023-03-31T20:56:32.102Z,99470.53
2023-03-31T20:59:00.183Z,99470.22
2023-03-31T21:01:30.340Z,99472.06
2023-03-31T21:04:01.487Z,99466.78
2023-03-31T21:06:31.361Z,99472.22
2023-03-31T21:08:58.752Z,99474.56
2023-03-31T21:11:29.622Z,99479.63
2023-03-31T21:13:56.596Z,99478.44
2023-03-31T21:16:24.119Z,99467.81
2023-03-31T21:19:00.048Z,99461.81
2023-03-31T21:21:28.013Z,99476.00
2023-03-31T21:23:55.829Z,99477.50
2023-03-31T21:26:23.407Z,99475.88
2023-03-31T21:28:54.500Z,99483.28
2023-03-31T21:31:26.250Z,99490.28
2023-03-31T21:33:53.890Z,99487.28
2023-03-31T21:36:23.006Z,99488.56
2023-03-31T21:38:54.303Z,99481.72
2023-03-31T21:41:24.489Z,99490.06
2023-03-31T21:43:52.582Z,99485.41
2023-03-31T21:46:24.967Z,99488.59
2023-03-31T21:48:51.948Z,99486.06
2023-03-31T21:51:22.260Z,99486.34
2023-03-31T21:53:53.392Z,99482.91
2023-03-31T21:56:20.497Z,99484.44
2023-03-31T21:58:47.425Z,99492.06
2023-03-31T22:01:15.039Z,99488.38
2023-03-31T22:03:42.625Z,99485.09
2023-03-31T22:06:10.737Z,99480.25
2023-03-31T22:08:39.242Z,99485.91
2023-03-31T22:11:08.394Z,99483.34
2023-03-31T22:13:35.846Z,99491.00
2023-03-31T22:16:04.359Z,99488.00
2023-03-31T22:18:31.463Z,99489.75
2023-03-31T22:20:58.564Z,99492.63
2023-03-31T22:23:27.833Z,99492.66
2023-03-31T22:25:55.004Z,99504.94
2023-03-31T22:28:21.879Z,99501.94
2023-03-31T22:30:48.923Z,99496.97
2023-03-31T22:33:15.955Z,99508.88
2023-03-31T22:35:42.847Z,99500.19
2023-03-31T22:38:12.990Z,99508.44
2023-03-31T22:40:39.926Z,99498.13
2023-03-31T22:43:06.795Z,99501.59
2023-03-31T22:45:36.687Z,99498.81
2023-03-31T22:48:04.480Z,99496.59
2023-03-31T22:50:31.919Z,99505.63
2023-03-31T22:52:58.832Z,99509.72
2023-03-31T22:55:25.598Z,99507.97
2023-03-31T22:57:52.511Z,99503.09
2023-03-31T23:00:19.717Z,99508.06
2023-03-31T23:02:46.585Z,99510.25
2023-03-31T23:05:16.655Z,99491.97
2023-03-31T23:07:43.943Z,99509.41
2023-03-31T23:10:11.540Z,99515.94
2023-03-31T23:12:38.615Z,99509.00
2023-03-31T23:15:05.866Z,99513.28
2023-03-31T23:17:33.019Z,99489.31
2023-03-31T23:19:59.873Z,99513.63
2023-03-31T23:22:26.856Z,99493.16
2023-03-31T23:24:54.048Z,99516.03
2023-03-31T23:27:21.298Z,99513.75
2023-03-31T23:29:48.408Z,99514.19
2023-03-31T23:32:15.751Z,99517.47
2023-03-31T23:34:42.917Z,99524.38
2023-03-31T23:37:11.346Z,99520.47
2023-03-31T23:39:39.139Z,99523.72
2023-03-31T23:42:10.074Z,99521.06
2023-03-31T23:44:40.016Z,99524.50
2023-03-31T23:47:06.934Z,99526.38
2023-03-31T23:49:33.843Z,99526.75
2023-03-31T23:52:00.983Z,99522.78
2023-03-31T23:54:28.127Z,99524.06
2023-03-31T23:56:54.967Z,99523.16
2023-03-31T23:59:22.025Z,99525.69
